Time;durP1;ratioP1;P1;durP2;ratioP2;P2;SDS_P1;SDS_P2;PMS_P1;PMS_P2;Temp;Humidity;BMP_temperature;BMP_pressure;BME280_temperature;BME280_humidity;BME280_pressure;Samples;Min_cycle;Max_cycle;Signal;HPM_P1;HPM_P2
2022/01/24 00:00:31;;;;;;;4.03;3.33;;;;;;;4.47;63.53;100539.69;2622651;54;20038;-70
2022/01/24 00:03:00;;;;;;;3.92;3.28;;;;;;;4.51;63.47;100542.91;2621586;47;20562;-70
2022/01/24 00:05:30;;;;;;;4.15;3.47;;;;;;;4.51;63.65;100548.97;2626369;54;20030;-71
2022/01/24 00:08:00;;;;;;;6.03;3.38;;;;;;;4.48;63.41;100547.41;2626214;54;20025;-71
2022/01/24 00:10:35;;;;;;;5.18;3.80;;;;;;;4.47;63.74;100547.53;2626253;54;20030;-73
2022/01/24 00:13:33;;;;;;;5.18;3.95;;;;;;;4.48;63.86;100533.47;2625354;54;20042;-70
2022/01/24 00:16:13;;;;;;;4.75;3.60;;;;;;;4.47;63.72;100537.88;2625925;54;20042;-71
2022/01/24 00:26:55;;;;;;;5.57;4.38;;;;;;;4.35;63.97;100536.16;2617801;47;20042;-71
2022/01/24 00:29:26;;;;;;;4.18;3.78;;;;;;;4.39;64.07;100527.13;2618694;54;20037;-70
2022/01/24 00:31:57;;;;;;;5.68;4.43;;;;;;;4.42;64.16;100542.63;2617992;47;20042;-71
2022/01/24 00:34:27;;;;;;;5.45;4.03;;;;;;;4.40;64.10;100536.66;2618753;54;20029;-70
2022/01/24 00:36:56;;;;;;;4.45;3.80;;;;;;;4.41;63.71;100538.34;2618593;54;20549;-71
2022/01/24 00:39:26;;;;;;;7.20;3.90;;;;;;;4.38;63.93;100538.56;2617878;47;20134;-70
2022/01/24 00:42:12;;;;;;;4.93;3.85;;;;;;;4.38;64.07;100541.19;2619225;54;20561;-71
2022/01/24 00:44:49;;;;;;;5.05;3.78;;;;;;;4.31;64.07;100536.50;2618502;54;20542;-71
2022/01/24 00:47:26;;;;;;;4.47;3.78;;;;;;;4.25;64.42;100542.19;2618182;39;20440;-70
2022/01/24 00:55:26;;;;;;;5.22;3.88;;;;;;;4.03;64.38;100543.69;2618256;54;20034;-70
2022/01/24 00:57:58;;;;;;;5.28;4.07;;;;;;;3.96;64.72;100543.28;2619791;39;20461;-72
2022/01/24 01:00:28;;;;;;;5.22;3.67;;;;;;;3.88;64.78;100553.47;2619160;47;20030;-70
2022/01/24 01:02:58;;;;;;;4.95;4.30;;;;;;;3.87;65.13;100545.69;2620272;54;20037;-71
2022/01/24 01:05:40;;;;;;;5.25;3.83;;;;;;;3.85;65.21;100544.97;2619640;31;20511;-71
2022/01/24 01:18:07;;;;;;;4.65;3.88;;;;;;;3.77;65.21;100548.13;2620807;54;20022;-72
2022/01/24 01:19:14;;;;;;;6.05;4.07;;;;;;;3.51;65.81;100546.47;2619538;39;20428;-71
2022/01/24 01:21:43;;;;;;;6.80;4.72;;;;;;;3.45;66.14;100542.50;2619646;39;20120;-71
2022/01/24 01:24:14;;;;;;;5.40;4.28;;;;;;;3.43;66.44;100549.63;2618948;47;20045;-72
2022/01/24 01:26:48;;;;;;;6.90;5.13;;;;;;;3.39;66.64;100548.16;2622478;54;20074;-72
2022/01/24 01:29:24;;;;;;;;;;;;;;;3.31;66.79;100542.59;2624423;54;20045;-72
2022/01/24 01:32:05;;;;;;;7.97;4.90;;;;;;;3.23;67.08;100545.72;2624411;54;19951;-72
2022/01/24 01:34:55;;;;;;;8.02;5.10;;;;;;;3.14;67.53;100544.56;2623550;47;20728;-70
2022/01/24 01:54:11;;;;;;;7.95;5.32;;;;;;;2.88;68.62;100553.28;2620576;54;20031;-71
2022/01/24 01:56:42;;;;;;;7.32;5.22;;;;;;;2.85;68.69;100548.25;2623328;54;20030;-73
2022/01/24 01:59:11;;;;;;;6.97;4.95;;;;;;;2.84;68.78;100549.19;2623579;54;20037;-70
2022/01/24 02:01:44;;;;;;;8.32;5.55;;;;;;;2.83;69.04;100545.75;2623523;54;20027;-72
2022/01/24 02:04:14;;;;;;;7.22;6.00;;;;;;;2.84;68.87;100546.59;2622204;54;20049;-71
2022/01/24 02:06:44;;;;;;;7.78;5.82;;;;;;;2.85;69.00;100548.25;2620555;54;20035;-72
2022/01/24 02:09:15;;;;;;;8.52;5.90;;;;;;;2.82;68.84;100551.94;2622641;54;20585;-72
2022/01/24 02:11:47;;;;;;;7.20;5.30;;;;;;;2.78;69.08;100545.22;2622580;47;20027;-72
2022/01/24 02:14:18;;;;;;;9.18;5.88;;;;;;;2.76;69.30;100547.09;2623133;54;20618;-72
2022/01/24 02:16:56;;;;;;;8.55;6.10;;;;;;;2.71;69.57;100541.34;2624303;39;20799;-71
2022/01/24 02:19:35;;;;;;;11.02;6.53;;;;;;;2.63;69.23;100538.38;2623409;47;20056;-71
2022/01/24 02:22:41;;;;;;;6.68;5.05;;;;;;;2.60;69.57;100539.41;2623228;47;20042;-71
2022/01/24 02:25:01;;;;;;;6.90;5.60;;;;;;;2.59;70.10;100529.91;2624564;54;20093;-70
2022/01/24 02:27:41;;;;;;;8.38;5.45;;;;;;;2.58;70.16;100535.25;2623971;47;20027;-70
2022/01/24 02:30:24;;;;;;;7.43;5.95;;;;;;;2.52;69.95;100526.00;2624822;54;20038;-70
2022/01/24 02:32:55;;;;;;;7.95;6.00;;;;;;;2.52;70.41;100538.22;2623195;54;20038;-71
2022/01/24 02:35:25;;;;;;;7.57;6.50;;;;;;;2.46;70.17;100531.63;2621550;54;20745;-70
2022/01/24 02:38:01;;;;;;;7.45;5.55;;;;;;;2.40;70.34;100526.78;2621833;54;20030;-70
2022/01/24 02:40:31;;;;;;;7.07;5.70;;;;;;;2.37;70.44;100532.25;2620387;54;20037;-71
2022/01/24 02:48:33;;;;;;;6.85;5.05;;;;;;;2.34;70.69;100533.25;2618216;47;20061;-70
2022/01/24 02:51:28;;;;;;;7.95;5.93;;;;;;;2.26;70.55;100527.69;2618508;47;20049;-70
2022/01/24 02:54:00;;;;;;;7.80;5.80;;;;;;;2.22;70.83;100521.81;2618859;46;20041;-69
2022/01/24 02:56:30;;;;;;;7.18;5.80;;;;;;;2.18;71.15;100522.13;2618869;39;20438;-70
2022/01/24 02:59:00;;;;;;;6.63;5.20;;;;;;;2.13;71.13;100527.63;2618188;47;20031;-71
2022/01/24 03:01:29;;;;;;;7.38;5.82;;;;;;;2.09;71.34;100526.16;2618798;39;20714;-70
2022/01/24 03:03:59;;;;;;;7.28;5.57;;;;;;;2.05;71.14;100523.84;2617988;46;20030;-71
2022/01/24 03:06:29;;;;;;;6.55;5.63;;;;;;;2.02;71.67;100524.84;2618656;54;20038;-71
2022/01/24 03:09:01;;;;;;;9.32;5.43;;;;;;;2.01;71.57;100517.13;2618726;54;20038;-70
2022/01/24 03:11:52;;;;;;;8.77;5.47;;;;;;;1.99;71.80;100514.59;2618664;54;20569;-69
2022/01/24 03:14:22;;;;;;;7.43;5.25;;;;;;;1.97;72.34;100517.31;2618431;54;20041;-69
2022/01/24 03:16:52;;;;;;;8.10;5.95;;;;;;;1.95;71.90;100518.34;2618618;54;20045;-70
2022/01/24 03:19:23;;;;;;;10.38;6.28;;;;;;;1.90;71.83;100515.19;2617912;47;20096;-71
2022/01/24 03:21:52;;;;;;;6.35;5.13;;;;;;;1.92;71.82;100515.94;2618819;54;20038;-70
2022/01/24 03:24:25;;;;;;;8.05;5.90;;;;;;;1.85;72.46;100515.47;2617912;47;20100;-71
2022/01/24 03:26:54;;;;;;;8.18;5.40;;;;;;;1.86;72.35;100514.53;2618604;54;20586;-71
2022/01/24 03:29:24;;;;;;;8.80;6.13;;;;;;;1.84;72.29;100515.56;2618721;54;20554;-71
2022/01/24 03:31:54;;;;;;;6.85;5.35;;;;;;;1.84;72.38;100515.56;2618825;54;20569;-71
2022/01/24 03:34:25;;;;;;;8.63;5.78;;;;;;;1.84;72.59;100513.81;2617999;47;20027;-72
2022/01/24 03:36:55;;;;;;;8.52;5.82;;;;;;;1.82;72.29;100509.59;2618736;54;20089;-70
2022/01/24 03:39:27;;;;;;;7.00;5.57;;;;;;;1.79;72.49;100507.19;2618882;54;20569;-71
2022/01/24 03:41:57;;;;;;;7.25;5.70;;;;;;;1.73;72.53;100497.97;2620236;39;20415;-71
2022/01/24 03:44:28;;;;;;;8.25;5.63;;;;;;;1.67;72.48;100501.81;2618875;54;20610;-70
2022/01/24 03:47:19;;;;;;;7.97;5.95;;;;;;;1.63;73.12;100500.31;2618431;47;20146;-72
2022/01/24 03:49:48;;;;;;;7.15;5.45;;;;;;;1.58;73.05;100493.69;2619698;39;20422;-70
2022/01/24 03:52:21;;;;;;;7.63;5.75;;;;;;;1.53;72.92;100499.19;2619112;54;20034;-70
2022/01/24 03:54:53;;;;;;;9.52;5.45;;;;;;;1.50;73.37;100491.56;2618526;54;20546;-71
2022/01/24 03:57:23;;;;;;;9.82;5.88;;;;;;;1.47;73.28;100489.16;2618421;54;20034;-70
2022/01/24 03:59:53;;;;;;;7.60;5.60;;;;;;;1.47;73.56;100483.94;2618067;54;20038;-71
2022/01/24 04:02:25;;;;;;;8.82;6.03;;;;;;;1.46;74.00;100483.06;2618157;54;20030;-69
2022/01/24 04:04:55;;;;;;;7.93;5.57;;;;;;;1.49;73.53;100482.91;2619210;39;20714;-69
2022/01/24 04:07:25;;;;;;;7.47;5.68;;;;;;;1.47;73.51;100483.94;2618056;54;20034;-69
2022/01/24 04:10:03;;;;;;;10.90;5.93;;;;;;;1.48;73.85;100486.44;2618775;54;20577;-68
2022/01/24 04:12:33;;;;;;;7.68;5.60;;;;;;;1.45;73.91;100488.41;2618705;54;20035;-69
2022/01/24 04:15:42;;;;;;;9.82;5.90;;;;;;;1.41;73.60;100481.69;2619705;39;20462;-69
2022/01/24 04:18:37;;;;;;;10.13;5.40;;;;;;;1.48;73.81;100490.81;2618472;54;20129;-69
2022/01/24 04:21:20;;;;;;;8.48;5.63;;;;;;;1.54;73.82;100492.22;2617980;54;20034;-71
2022/01/24 04:23:55;;;;;;;7.88;5.65;;;;;;;1.52;73.65;100494.09;2618713;54;20045;-69
2022/01/24 04:26:28;;;;;;;7.95;5.25;;;;;;;1.61;73.76;100498.72;2619212;39;20457;-69
2022/01/24 04:28:58;;;;;;;6.90;5.38;;;;;;;1.66;73.49;100488.84;2621510;54;20033;-69
2022/01/24 04:31:28;;;;;;;8.43;5.43;;;;;;;1.66;73.49;100500.09;2624557;39;20572;-69
2022/01/24 04:33:58;;;;;;;8.60;6.43;;;;;;;1.67;73.52;100487.91;2624944;54;20126;-69
2022/01/24 04:36:28;;;;;;;9.57;6.82;;;;;;;1.72;73.24;100488.47;2623856;54;20022;-70
2022/01/24 04:38:59;;;;;;;8.75;5.95;;;;;;;1.71;73.06;100487.66;2623655;54;20025;-70
2022/01/24 04:41:35;;;;;;;10.20;7.15;;;;;;;1.63;73.52;100489.03;2623698;54;20034;-70
2022/01/24 04:44:13;;;;;;;7.95;5.47;;;;;;;1.65;73.45;100487.19;2623573;54;20066;-69
2022/01/24 04:47:01;;;;;;;13.05;6.78;;;;;;;1.69;73.16;100488.66;2623955;39;20399;-70
2022/01/24 04:52:35;;;;;;;8.85;6.13;;;;;;;1.72;73.05;100486.72;2617517;54;20030;-69
2022/01/24 04:55:05;;;;;;;7.75;5.78;;;;;;;1.72;73.20;100489.31;2618475;54;20062;-69
2022/01/24 04:57:38;;;;;;;8.82;5.80;;;;;;;1.67;73.17;100490.50;2618453;54;20045;-69
2022/01/24 05:00:10;;;;;;;10.20;5.97;;;;;;;1.70;73.14;100492.94;2618586;54;20045;-69
2022/01/24 05:02:40;;;;;;;9.15;6.10;;;;;;;1.73;72.95;100492.75;2618314;54;20046;-69
2022/01/24 05:05:16;;;;;;;7.95;6.03;;;;;;;1.74;72.91;100491.81;2618383;54;20042;-69
2022/01/24 05:07:47;;;;;;;13.32;8.13;;;;;;;1.78;72.94;100500.28;2616663;54;20035;-69
2022/01/24 05:10:23;;;;;;;8.32;6.18;;;;;;;1.80;72.86;100498.44;2616722;54;20126;-70
2022/01/24 05:23:45;;;;;;;10.82;7.18;;;;;;;1.55;72.77;100496.47;2617143;54;20534;-69
2022/01/24 05:26:15;;;;;;;9.82;6.80;;;;;;;1.53;72.63;100495.75;2617358;39;20459;-69
2022/01/24 05:28:47;;;;;;;12.68;8.95;;;;;;;1.56;72.43;100498.19;2617015;54;20061;-69
2022/01/24 05:31:17;;;;;;;13.07;8.85;;;;;;;1.44;72.47;100502.38;2616589;54;20026;-69
2022/01/24 05:33:47;;;;;;;10.48;6.93;;;;;;;1.37;73.08;100504.50;2617000;54;20026;-69
2022/01/24 05:36:17;;;;;;;8.63;6.35;;;;;;;1.40;73.15;100500.88;2616850;47;20075;-69
2022/01/24 05:38:47;;;;;;;8.57;6.45;;;;;;;1.45;72.75;100499.66;2617377;54;20065;-69
2022/01/24 05:41:17;;;;;;;8.75;6.38;;;;;;;1.38;72.42;100498.34;2618523;54;20072;-69
2022/01/24 05:43:49;;;;;;;9.82;6.97;;;;;;;1.29;72.88;100496.28;2618463;54;20030;-69
2022/01/24 05:46:19;;;;;;;10.57;7.25;;;;;;;1.33;73.36;100500.41;2618113;54;20022;-69
2022/01/24 05:48:49;;;;;;;10.77;7.75;;;;;;;1.34;73.29;100499.47;2618144;54;20041;-69
2022/01/24 05:51:20;;;;;;;10.75;7.97;;;;;;;1.41;72.69;100494.72;2618589;39;20438;-69
2022/01/24 05:53:50;;;;;;;10.52;7.43;;;;;;;1.43;72.80;100498.09;2618732;39;20441;-68
2022/01/24 05:56:20;;;;;;;11.55;7.57;;;;;;;1.47;72.98;100497.81;2618080;54;20033;-70
2022/01/24 05:58:52;;;;;;;11.27;7.80;;;;;;;1.46;72.62;100495.28;2618648;39;20430;-69
2022/01/24 06:01:23;;;;;;;8.63;6.90;;;;;;;1.47;72.71;100503.03;2618242;54;20034;-69
2022/01/24 06:03:53;;;;;;;11.85;7.80;;;;;;;1.49;72.61;100500.31;2617300;47;20058;-69
2022/01/24 06:06:23;;;;;;;10.52;6.55;;;;;;;1.52;72.62;100499.28;2617933;54;20150;-69
2022/01/24 06:08:53;;;;;;;11.38;7.22;;;;;;;1.56;72.67;100498.19;2618174;54;20046;-70
2022/01/24 06:11:24;;;;;;;11.68;7.80;;;;;;;1.39;72.05;100502.66;2618103;54;20034;-68
2022/01/24 06:13:58;;;;;;;11.52;8.27;;;;;;;1.32;72.23;100503.94;2618084;54;20030;-69
2022/01/24 06:16:27;;;;;;;20.45;11.55;;;;;;;1.24;72.82;100506.16;2617618;54;20042;-69
2022/01/24 06:18:57;;;;;;;15.07;9.63;;;;;;;1.20;72.66;100508.09;2617824;54;20034;-70
2022/01/24 06:21:27;;;;;;;22.85;12.30;;;;;;;1.20;73.04;100508.09;2621007;46;20046;-70
2022/01/24 06:23:57;;;;;;;13.73;9.73;;;;;;;1.21;73.14;100509.78;2620883;47;20023;-69
2022/01/24 06:26:26;;;;;;;15.48;8.18;;;;;;;1.25;72.55;100505.22;2620888;47;20026;-69
2022/01/24 06:28:59;;;;;;;10.80;7.75;;;;;;;1.32;72.91;100506.53;2620699;47;20082;-70
2022/01/24 06:31:28;;;;;;;9.95;7.78;;;;;;;1.29;72.69;100511.09;2621400;54;20038;-71
2022/01/24 06:33:58;;;;;;;12.55;7.82;;;;;;;1.22;72.59;100508.00;2621561;54;20043;-71
2022/01/24 06:36:28;;;;;;;10.75;7.63;;;;;;;1.10;72.49;100517.41;2621219;47;20061;-68
2022/01/24 06:38:59;;;;;;;11.70;7.13;;;;;;;1.04;73.06;100516.91;2621240;47;20034;-68
2022/01/24 06:41:32;;;;;;;12.13;8.63;;;;;;;1.13;73.24;100516.38;2621941;54;20034;-69
2022/01/24 06:44:05;;;;;;;12.65;9.05;;;;;;;1.19;73.10;100516.84;2622483;54;20045;-71
2022/01/24 06:46:35;;;;;;;9.90;7.82;;;;;;;1.14;72.60;100524.13;2621863;54;20042;-68
2022/01/24 06:49:09;;;;;;;10.05;7.53;;;;;;;1.15;72.85;100514.53;2619733;54;20584;-68
2022/01/24 06:51:38;;;;;;;13.43;7.72;;;;;;;1.19;72.49;100513.41;2618961;54;20034;-69
2022/01/24 06:54:08;;;;;;;12.85;8.20;;;;;;;1.07;72.70;100525.41;2618453;54;20026;-70
2022/01/24 06:56:37;;;;;;;12.57;7.68;;;;;;;0.91;72.42;100522.84;2618333;54;20034;-71
2022/01/24 06:59:09;;;;;;;13.52;7.90;;;;;;;0.84;73.00;100520.69;2618202;54;20045;-71
2022/01/24 07:01:39;;;;;;;13.10;8.18;;;;;;;0.74;72.89;100526.41;2619269;54;20038;-70
2022/01/24 07:04:09;;;;;;;10.40;7.00;;;;;;;0.66;73.43;100531.22;2619013;54;20038;-71
2022/01/24 07:06:40;;;;;;;12.43;8.13;;;;;;;0.70;73.34;100529.28;2618911;54;20086;-70
2022/01/24 07:09:12;;;;;;;11.02;7.82;;;;;;;0.70;73.71;100531.91;2618884;54;20030;-69
2022/01/24 07:11:42;;;;;;;11.65;8.02;;;;;;;0.79;73.94;100535.72;2619015;54;20030;-71
2022/01/24 07:14:15;;;;;;;11.63;8.02;;;;;;;0.68;73.78;100539.78;2618852;54;20039;-70
2022/01/24 07:17:10;;;;;;;11.50;8.32;;;;;;;0.62;73.61;100536.69;2619180;54;20027;-70
2022/01/24 07:19:40;;;;;;;12.75;8.15;;;;;;;0.66;73.62;100546.84;2618964;54;20034;-70
2022/01/24 07:22:10;;;;;;;14.32;8.73;;;;;;;0.67;73.94;100540.72;2619252;54;20038;-70
2022/01/24 07:24:40;;;;;;;12.85;8.63;;;;;;;0.72;73.94;100532.63;2618413;54;20074;-70
2022/01/24 07:27:10;;;;;;;12.48;9.18;;;;;;;0.82;74.35;100541.59;2618001;49;20041;-70
2022/01/24 07:29:42;;;;;;;16.75;8.98;;;;;;;0.88;74.03;100538.63;2619102;54;20046;-70
2022/01/24 07:32:13;;;;;;;12.98;8.75;;;;;;;0.81;73.81;100546.88;2619186;54;20038;-71
2022/01/24 07:34:42;;;;;;;10.25;7.82;;;;;;;0.77;73.91;100540.19;2618179;47;20038;-70
2022/01/24 07:37:13;;;;;;;11.20;8.63;;;;;;;0.72;73.66;100546.47;2618295;47;20061;-70
2022/01/24 07:39:42;;;;;;;11.77;8.18;;;;;;;0.70;73.99;100548.34;2618937;54;20035;-70
2022/01/24 07:42:27;;;;;;;16.13;9.73;;;;;;;0.72;74.19;100551.69;2618880;54;20038;-69
2022/01/24 07:45:00;;;;;;;10.40;8.27;;;;;;;0.82;74.11;100549.41;2618494;46;20046;-70
2022/01/24 07:47:30;;;;;;;14.85;8.35;;;;;;;0.89;74.02;100549.88;2619307;39;20438;-70
2022/01/24 07:50:00;;;;;;;13.93;8.40;;;;;;;1.02;74.25;100548.28;2618739;54;20045;-70
2022/01/24 07:52:29;;;;;;;11.05;7.25;;;;;;;1.07;73.74;100551.44;2618989;54;20038;-71
2022/01/24 07:54:59;;;;;;;10.82;7.78;;;;;;;1.16;74.24;100556.09;2618858;54;20026;-70
2022/01/24 07:57:28;;;;;;;10.82;8.35;;;;;;;1.22;73.78;100547.09;2618346;54;20041;-69
2022/01/24 08:00:01;;;;;;;12.52;9.23;;;;;;;1.30;73.47;100549.25;2618347;54;20049;-71
2022/01/24 08:02:40;;;;;;;13.35;8.88;;;;;;;1.32;73.35;100556.06;2619105;39;20730;-70
2022/01/24 08:05:12;;;;;;;20.75;10.05;;;;;;;1.36;73.76;100554.09;2617732;47;20048;-70
2022/01/24 08:07:42;;;;;;;11.95;8.15;;;;;;;1.36;73.33;100554.94;2618130;54;20515;-69
2022/01/24 08:10:12;;;;;;;12.85;8.60;;;;;;;1.33;73.25;100562.94;2618200;54;20033;-69
2022/01/24 08:12:47;;;;;;;13.55;9.25;;;;;;;1.33;72.95;100555.13;2620038;39;20185;-69
2022/01/24 08:15:19;;;;;;;15.32;9.30;;;;;;;1.39;73.56;100566.97;2618523;54;20030;-68
2022/01/24 08:17:50;;;;;;;13.73;8.98;;;;;;;1.44;73.37;100563.13;2618585;54;20045;-68
2022/01/24 08:20:20;;;;;;;12.45;8.60;;;;;;;1.53;73.63;100559.13;2618394;54;20026;-68
2022/01/24 08:23:09;;;;;;;11.50;7.68;;;;;;;1.57;73.43;100558.03;2618749;46;20042;-69
2022/01/24 08:25:39;;;;;;;17.25;8.20;;;;;;;1.67;73.56;100555.69;2619262;54;20034;-69
2022/01/24 08:28:09;;;;;;;12.10;7.90;;;;;;;1.75;73.55;100558.66;2619392;54;20108;-70
2022/01/24 08:30:42;;;;;;;11.75;8.25;;;;;;;1.86;73.32;100552.81;2618349;54;20049;-69
2022/01/24 08:33:12;;;;;;;34.25;19.17;;;;;;;2.00;73.84;100558.03;2618709;54;20035;-70
2022/01/24 08:35:44;;;;;;;10.90;7.57;;;;;;;2.11;73.59;100544.31;2618158;54;20074;-71
2022/01/24 08:38:13;;;;;;;9.95;6.60;;;;;;;2.19;72.99;100552.50;2618575;54;20038;-71
2022/01/24 08:40:46;;;;;;;9.25;7.13;;;;;;;2.23;72.95;100552.19;2619138;39;20474;-71
2022/01/24 08:43:23;;;;;;;12.20;7.70;;;;;;;2.30;72.74;100551.81;2618792;54;20162;-72
2022/01/24 08:45:58;;;;;;;9.10;6.85;;;;;;;2.35;72.53;100541.91;2618698;54;20045;-71
2022/01/24 08:48:31;;;;;;;9.27;6.88;;;;;;;2.36;72.67;100549.66;2618927;51;20100;-71
2022/01/24 08:51:02;;;;;;;10.60;7.28;;;;;;;2.40;72.81;100548.50;2618388;54;20042;-72
2022/01/24 08:53:34;;;;;;;9.95;6.53;;;;;;;2.46;72.43;100561.19;2618979;54;20039;-72
2022/01/24 08:56:25;;;;;;;11.63;7.32;;;;;;;2.57;72.95;100555.28;2617004;47;20118;-71
2022/01/24 08:58:55;;;;;;;14.23;8.15;;;;;;;2.66;72.56;100553.84;2617388;47;20038;-71
2022/01/24 09:01:28;;;;;;;10.82;7.25;;;;;;;2.68;72.56;100544.97;2617060;54;20030;-70
2022/01/24 09:03:58;;;;;;;11.05;8.10;;;;;;;2.78;72.57;100547.00;2617103;54;20041;-71
2022/01/24 09:06:29;;;;;;;11.52;6.45;;;;;;;2.82;71.98;100546.69;2616660;54;20045;-71
2022/01/24 09:08:59;;;;;;;7.30;5.57;;;;;;;2.85;71.48;100553.47;2617433;54;20038;-69
2022/01/24 09:11:31;;;;;;;8.65;6.30;;;;;;;2.86;71.74;100552.56;2617719;54;20042;-70
2022/01/24 09:14:01;;;;;;;8.23;6.15;;;;;;;2.91;71.83;100550.47;2617011;54;20050;-71
2022/01/24 09:16:33;;;;;;;8.25;6.22;;;;;;;2.94;71.84;100551.13;2616707;54;20041;-70
2022/01/24 09:19:03;;;;;;;9.02;6.38;;;;;;;2.97;71.81;100547.44;2617013;54;20034;-71
2022/01/24 09:21:34;;;;;;;11.35;7.65;;;;;;;2.97;71.42;100544.84;2616549;47;20035;-69
2022/01/24 09:24:04;;;;;;;10.35;7.78;;;;;;;3.05;71.81;100546.94;2619083;54;20035;-70
2022/01/24 09:26:34;;;;;;;9.82;6.38;;;;;;;3.11;71.21;100555.22;2623899;47;20026;-71
2022/01/24 09:29:05;;;;;;;10.10;6.82;;;;;;;3.13;71.52;100550.72;2624296;54;20030;-70
2022/01/24 09:31:37;;;;;;;11.48;7.78;;;;;;;3.14;71.59;100549.81;2624864;54;20032;-68
2022/01/24 09:34:07;;;;;;;11.10;7.32;;;;;;;3.19;71.23;100560.78;2624459;54;20042;-69
2022/01/24 09:36:36;;;;;;;10.32;7.03;;;;;;;3.22;71.32;100557.97;2624275;47;20031;-71
2022/01/24 09:39:06;;;;;;;10.20;7.43;;;;;;;3.26;71.08;100553.34;2624687;54;20034;-70
2022/01/24 09:41:36;;;;;;;9.13;7.13;;;;;;;3.36;70.98;100559.63;2624612;54;20038;-70
2022/01/24 09:44:25;;;;;;;11.70;7.75;;;;;;;3.47;70.89;100553.69;2624941;54;20574;-70
2022/01/24 09:46:58;;;;;;;11.15;7.15;;;;;;;3.53;70.54;100552.44;2622082;54;20038;-70
2022/01/24 09:49:28;;;;;;;9.38;7.07;;;;;;;3.60;70.24;100554.53;2618392;54;20049;-70
2022/01/24 09:51:57;;;;;;;9.85;7.53;;;;;;;3.69;70.83;100550.44;2617572;47;20053;-70
2022/01/24 09:54:27;;;;;;;9.73;7.15;;;;;;;3.82;70.80;100550.41;2618442;54;20026;-70
2022/01/24 09:56:56;;;;;;;14.70;8.45;;;;;;;3.97;70.64;100549.38;2617954;54;20038;-70
2022/01/24 09:59:28;;;;;;;29.63;18.02;;;;;;;4.08;69.64;100545.97;2618001;54;20041;-70
2022/01/24 10:02:01;;;;;;;18.48;13.40;;;;;;;4.19;69.92;100551.28;2618108;54;20056;-70
2022/01/24 10:04:31;;;;;;;9.32;7.28;;;;;;;4.24;68.72;100543.94;2617778;54;20030;-70
2022/01/24 10:07:03;;;;;;;10.82;7.95;;;;;;;4.19;67.87;100546.06;2618061;54;20034;-69
2022/01/24 10:09:38;;;;;;;10.70;7.80;;;;;;;4.21;68.34;100538.94;2618192;54;20030;-70
2022/01/24 10:12:18;;;;;;;10.85;8.40;;;;;;;4.22;67.88;100538.00;2619117;31;20516;-70
2022/01/24 10:17:41;;;;;;;12.88;8.02;;;;;;;4.33;67.02;100535.44;2618183;54;20034;-68
2022/01/24 10:20:19;;;;;;;9.60;7.85;;;;;;;4.33;67.61;100542.47;2617553;47;20035;-68
2022/01/24 10:23:06;;;;;;;9.70;7.97;;;;;;;4.37;67.10;100544.75;2620345;54;20558;-69
2022/01/24 10:25:51;;;;;;;13.15;8.00;;;;;;;4.43;67.36;100544.28;2626238;54;20588;-69
2022/01/24 10:28:27;;;;;;;14.52;10.63;;;;;;;4.45;66.78;100545.03;2618330;54;20038;-69
2022/01/24 10:31:06;;;;;;;40.35;30.40;;;;;;;4.47;66.86;100537.06;2617722;47;20027;-68
2022/01/24 10:34:01;;;;;;;19.20;14.05;;;;;;;4.56;66.94;100546.84;2618766;54;20038;-70
2022/01/24 10:36:38;;;;;;;26.48;15.27;;;;;;;4.64;66.18;100541.91;2618693;47;20030;-71
2022/01/24 10:39:26;;;;;;;19.08;12.73;;;;;;;4.66;66.04;100541.81;2621754;54;20042;-69
2022/01/24 10:42:27;;;;;;;22.25;14.05;;;;;;;4.65;65.86;100529.63;2622957;46;20023;-69
2022/01/24 10:44:59;;;;;;;19.08;12.13;;;;;;;4.71;65.97;100534.44;2623053;47;20034;-71
2022/01/24 10:47:31;;;;;;;19.95;12.75;;;;;;;4.74;65.51;100533.38;2623641;54;20027;-69
2022/01/24 10:50:07;;;;;;;20.70;13.90;;;;;;;4.75;65.61;100530.66;2623615;54;20042;-70
2022/01/24 10:52:38;;;;;;;20.27;12.02;;;;;;;4.76;65.82;100527.06;2623653;54;20026;-69
2022/01/24 10:55:17;;;;;;;14.55;10.77;;;;;;;4.82;65.85;100529.25;2623564;47;20059;-69
2022/01/24 10:57:50;;;;;;;13.15;9.02;;;;;;;4.89;65.46;100519.97;2623990;39;20426;-66
2022/01/24 11:00:24;;;;;;;9.38;7.85;;;;;;;4.90;65.15;100519.03;2623800;39;20438;-67
2022/01/24 11:03:00;;;;;;;10.77;7.68;;;;;;;4.88;65.12;100527.94;2623175;54;20039;-67
2022/01/24 11:05:37;;;;;;;10.93;7.80;;;;;;;4.87;65.06;100523.66;2623025;54;20531;-66
2022/01/24 11:08:11;;;;;;;9.73;7.43;;;;;;;4.86;65.16;100522.00;2622387;47;20549;-69
2022/01/24 11:10:43;;;;;;;9.70;7.72;;;;;;;4.92;64.70;100519.75;2624373;54;20065;-69
2022/01/24 11:13:17;;;;;;;15.10;9.18;;;;;;;4.94;65.10;100523.09;2623040;47;20034;-69
2022/01/24 11:15:55;;;;;;;12.05;8.23;;;;;;;4.98;64.57;100515.84;2616801;54;20057;-64
2022/01/24 11:18:31;;;;;;;11.07;8.85;;;;;;;5.03;65.29;100521.56;2618797;39;20459;-64
2022/01/24 11:21:12;;;;;;;12.68;7.68;;;;;;;5.08;64.55;100526.47;2618754;54;20579;-63
2022/01/24 11:23:43;;;;;;;8.93;7.38;;;;;;;5.07;64.27;100527.41;2618750;54;20048;-62
2022/01/24 11:26:14;;;;;;;10.60;7.93;;;;;;;5.03;64.14;100513.72;2618973;54;20042;-62
2022/01/24 11:28:44;;;;;;;10.38;7.90;;;;;;;5.05;64.76;100518.81;2618744;54;20026;-62
2022/01/24 11:31:22;;;;;;;12.43;7.93;;;;;;;5.08;64.60;100514.19;2618938;54;20542;-62
2022/01/24 11:33:58;;;;;;;14.00;9.07;;;;;;;5.15;64.59;100517.19;2618477;39;20407;-62
2022/01/24 11:36:42;;;;;;;11.38;7.75;;;;;;;5.15;64.07;100514.56;2617831;46;20023;-63
2022/01/24 11:39:12;;;;;;;13.40;8.50;;;;;;;5.10;63.99;100508.81;2618774;54;20059;-62
2022/01/24 11:41:43;;;;;;;12.45;8.48;;;;;;;5.13;64.48;100509.44;2618667;54;20034;-62
2022/01/24 11:44:16;;;;;;;10.02;7.68;;;;;;;5.13;64.33;100506.81;2618495;54;20034;-64
2022/01/24 11:46:48;;;;;;;10.70;8.27;;;;;;;5.20;64.35;100515.06;2618481;54;20027;-62
2022/01/24 11:49:21;;;;;;;11.98;7.53;;;;;;;5.27;63.93;100511.03;2618271;54;20030;-63
2022/01/24 11:52:04;;;;;;;9.55;7.97;;;;;;;5.29;63.92;100505.66;2618730;39;20479;-66
2022/01/24 11:54:48;;;;;;;11.40;8.40;;;;;;;5.35;64.18;100502.56;2618299;54;20034;-63
2022/01/24 11:57:27;;;;;;;13.90;8.63;;;;;;;5.44;63.90;100497.44;2618367;54;20082;-64
2022/01/24 12:00:37;;;;;;;9.95;8.13;;;;;;;5.48;63.42;100498.03;2618478;54;20038;-63
2022/01/24 12:03:20;;;;;;;15.88;8.52;;;;;;;5.49;63.06;100496.25;2617863;54;20026;-62
2022/01/24 12:05:53;;;;;;;10.27;8.13;;;;;;;5.51;63.33;100495.19;2618228;54;20065;-63
2022/01/24 12:08:47;;;;;;;11.77;8.10;;;;;;;5.53;63.34;100487.19;2618555;54;20030;-63
2022/01/24 12:11:22;;;;;;;11.40;7.88;;;;;;;5.60;63.51;100491.00;2618631;54;20558;-64
2022/01/24 12:14:01;;;;;;;10.77;7.95;;;;;;;5.65;62.33;100484.44;2618302;47;20030;-64
2022/01/24 12:16:36;;;;;;;9.55;8.45;;;;;;;5.61;62.97;100488.25;2618564;54;20034;-64
2022/01/24 12:19:08;;;;;;;11.70;7.97;;;;;;;5.56;62.82;100482.53;2618763;54;20119;-64
2022/01/24 17:17:45;;;;;;;13.93;10.90;;;;;;;3.38;70.17;100458.41;2623773;46;20026;-66
2022/01/24 17:20:15;;;;;;;20.17;12.43;;;;;;;3.36;70.74;100456.84;2624917;39;20387;-66
2022/01/24 17:22:45;;;;;;;24.50;14.43;;;;;;;3.39;71.02;100461.88;2623592;54;20093;-68
2022/01/24 17:25:15;;;;;;;16.88;11.85;;;;;;;3.35;70.69;100456.03;2624859;39;20426;-66
2022/01/24 17:27:45;;;;;;;17.52;11.70;;;;;;;3.32;71.08;100458.00;2622585;54;20126;-66
2022/01/24 17:30:16;;;;;;;15.32;10.93;;;;;;;3.27;71.12;100449.66;2623118;54;20030;-65
2022/01/24 17:32:54;;;;;;;14.70;10.50;;;;;;;3.21;71.34;100456.13;2622904;54;20090;-66
2022/01/24 17:35:23;;;;;;;13.57;10.98;;;;;;;3.15;71.52;100461.78;2622799;54;20022;-67
2022/01/24 17:37:53;;;;;;;15.40;10.88;;;;;;;3.16;71.68;100459.06;2623008;47;20038;-66
2022/01/24 17:40:24;;;;;;;13.93;11.07;;;;;;;3.20;71.69;100454.47;2622670;54;20039;-65
2022/01/24 17:42:55;;;;;;;19.67;11.75;;;;;;;3.22;71.74;100461.25;2622048;54;20026;-66
2022/01/24 17:45:45;;;;;;;17.15;12.40;;;;;;;3.27;71.69;100462.72;2623290;54;20039;-66
2022/01/24 17:48:18;;;;;;;18.83;12.50;;;;;;;3.22;71.48;100458.66;2623947;54;20038;-67
2022/01/24 17:50:48;;;;;;;16.02;11.00;;;;;;;3.16;71.37;100463.44;2622742;54;20553;-67
2022/01/24 17:53:20;;;;;;;20.42;13.77;;;;;;;3.07;71.74;100464.09;2623390;54;20042;-67
2022/01/24 17:55:50;;;;;;;16.58;11.50;;;;;;;3.05;71.51;100461.56;2622170;47;20030;-67